Terminal Aerodrome Forecast
Issued by NWS Twin Cities, MN

Home | Current Version | Previous Version | Text Only | Print | Product List | Glossary Off
Versions: 1 2 3 4 5 6 7 8 9 10 11 12

000
FTUS43 KMPX 311720
TAFSTC
TAF
KSTC 311720Z 3118/0118 10007KT P6SM BKN200
     FM312300 12006KT P6SM BKN150
     FM010200 10003KT P6SM SCT100 BKN250
     FM011400 14009KT P6SM SCT100 SCT250=

USA.gov is the U.S. government's official web portal to all federal, state and local government web resources and services.